createdAt,value
2023-05-15T00:00:40.267Z,101581.41
2023-05-15T00:03:06.782Z,101587.16
2023-05-15T00:05:33.329Z,101591.91
2023-05-15T00:07:59.826Z,101582.69
2023-05-15T00:10:26.352Z,101588.25
2023-05-15T00:12:52.726Z,101585.00
2023-05-15T00:15:19.153Z,101577.09
2023-05-15T00:17:45.536Z,101574.25
2023-05-15T00:20:12.358Z,101580.25
2023-05-15T00:22:38.827Z,101575.81
2023-05-15T00:25:05.703Z,101580.53
2023-05-15T00:27:32.126Z,101574.66
2023-05-15T00:29:58.556Z,101568.09
2023-05-15T00:32:25.017Z,101574.59
2023-05-15T00:34:51.356Z,101570.34
2023-05-15T00:37:17.748Z,101572.28
2023-05-15T00:39:44.209Z,101568.09
2023-05-15T00:42:11.399Z,101560.69
2023-05-15T00:44:40.244Z,101561.00
2023-05-15T00:47:07.687Z,101558.66
2023-05-15T00:49:35.574Z,101555.28
2023-05-15T00:52:03.723Z,101550.97
2023-05-15T00:54:30.480Z,101546.66
2023-05-15T00:57:00.346Z,101551.09
2023-05-15T00:59:29.959Z,101545.81
2023-05-15T01:01:56.423Z,101552.09
2023-05-15T01:04:23.090Z,101544.28
2023-05-15T01:06:50.107Z,101538.19
2023-05-15T01:09:17.889Z,101544.56
2023-05-15T01:11:46.754Z,101550.88
2023-05-15T01:14:13.181Z,101554.25
2023-05-15T01:16:39.685Z,101544.56
2023-05-15T01:19:06.411Z,101541.00
2023-05-15T01:21:36.163Z,101547.84
2023-05-15T01:24:27.016Z,101552.16
2023-05-15T01:27:13.464Z,101539.91
2023-05-15T01:29:57.825Z,101542.84
2023-05-15T01:32:32.056Z,101537.00
2023-05-15T01:35:23.872Z,101530.44
2023-05-15T01:37:56.896Z,101529.13
2023-05-15T01:40:26.160Z,101523.97
2023-05-15T01:42:56.274Z,101525.66
2023-05-15T01:45:24.998Z,101526.78
2023-05-15T01:47:54.431Z,101534.66
2023-05-15T01:50:21.942Z,101525.06
2023-05-15T01:52:52.236Z,101525.94
2023-05-15T01:55:21.177Z,101520.00
2023-05-15T01:57:50.352Z,101522.75
2023-05-15T02:00:17.822Z,101535.97
2023-05-15T02:02:45.771Z,101533.72
2023-05-15T02:05:12.986Z,101525.94
2023-05-15T02:07:42.438Z,101537.41
2023-05-15T02:10:10.908Z,101537.69
2023-05-15T02:12:37.996Z,101541.41
2023-05-15T02:15:04.954Z,101536.19
2023-05-15T02:17:31.493Z,101533.66
2023-05-15T02:19:58.015Z,101539.97
2023-05-15T02:22:24.524Z,101539.84
2023-05-15T02:24:50.978Z,101551.16
2023-05-15T02:27:26.717Z,101543.09
2023-05-15T02:29:59.166Z,101542.09
2023-05-15T02:33:02.162Z,101547.84
2023-05-15T02:35:52.261Z,101542.63
2023-05-15T02:38:29.545Z,101535.66
2023-05-15T02:40:57.909Z,101532.25
2023-05-15T02:43:26.181Z,101532.88
2023-05-15T02:45:53.328Z,101534.41
2023-05-15T02:48:20.354Z,101542.13
2023-05-15T02:50:46.823Z,101538.47
2023-05-15T02:53:14.509Z,101541.28
2023-05-15T02:55:41.308Z,101541.38
2023-05-15T02:58:08.289Z,101535.28
2023-05-15T03:00:34.813Z,101528.16
2023-05-15T03:03:01.259Z,101529.81
2023-05-15T03:05:27.996Z,101527.31
2023-05-15T03:07:54.613Z,101530.63
2023-05-15T03:10:23.700Z,101522.94
2023-05-15T03:12:50.195Z,101522.16
2023-05-15T03:15:16.716Z,101524.84
2023-05-15T03:17:43.252Z,101520.47
2023-05-15T03:20:09.986Z,101525.81
2023-05-15T03:22:36.444Z,101521.78
2023-05-15T03:25:02.889Z,101526.22
2023-05-15T03:27:29.329Z,101522.50
2023-05-15T03:29:55.731Z,101516.78
2023-05-15T03:32:22.158Z,101515.06
2023-05-15T03:34:48.775Z,101516.56
2023-05-15T03:37:15.176Z,101518.97
2023-05-15T03:39:41.564Z,101511.03
2023-05-15T03:42:07.929Z,101515.53
2023-05-15T03:44:34.895Z,101513.97
2023-05-15T03:47:01.356Z,101514.22
2023-05-15T03:49:27.832Z,101507.53
2023-05-15T03:51:54.317Z,101503.81
2023-05-15T03:54:20.737Z,101508.22
2023-05-15T03:56:47.340Z,101501.19
2023-05-15T03:59:13.763Z,101506.28
2023-05-15T04:01:51.311Z,101513.25
2023-05-15T04:04:26.614Z,101519.63
2023-05-15T04:06:53.026Z,101520.56
2023-05-15T04:09:19.441Z,101529.22
2023-05-15T04:11:46.731Z,101527.84
2023-05-15T04:14:13.546Z,101525.38
2023-05-15T04:16:40.088Z,101528.56
2023-05-15T04:19:06.589Z,101526.03
2023-05-15T04:21:33.066Z,101519.84
2023-05-15T04:23:59.424Z,101522.25
2023-05-15T04:26:26.087Z,101524.84
2023-05-15T04:29:03.513Z,101528.28
2023-05-15T04:31:31.486Z,101525.78
2023-05-15T04:33:58.147Z,101518.03
2023-05-15T04:36:24.654Z,101518.06
2023-05-15T04:38:51.591Z,101525.25
2023-05-15T04:41:18.540Z,101526.53
2023-05-15T04:43:44.960Z,101525.09
2023-05-15T04:46:11.555Z,101539.88
2023-05-15T04:48:38.100Z,101532.31
2023-05-15T04:51:04.667Z,101538.69
2023-05-15T04:53:31.062Z,101541.34
2023-05-15T04:55:57.492Z,101545.38
2023-05-15T04:58:23.980Z,101539.81
2023-05-15T05:00:50.352Z,101545.84
2023-05-15T05:03:16.856Z,101543.16
2023-05-15T05:05:43.278Z,101528.66
2023-05-15T05:08:09.686Z,101536.38
2023-05-15T05:10:36.069Z,101534.34
2023-05-15T05:13:02.535Z,101541.44
2023-05-15T05:15:28.971Z,101544.38
2023-05-15T05:17:55.395Z,101554.53
2023-05-15T05:20:21.763Z,101548.91
2023-05-15T05:22:48.185Z,101548.03
2023-05-15T05:25:14.623Z,101547.44
2023-05-15T05:27:41.022Z,101546.34
2023-05-15T05:30:08.580Z,101540.16
2023-05-15T05:32:35.091Z,101543.16
2023-05-15T05:35:01.751Z,101542.19
2023-05-15T05:37:28.157Z,101530.78
2023-05-15T05:39:54.862Z,101531.63
2023-05-15T05:42:21.306Z,101532.97
2023-05-15T05:44:47.725Z,101533.59
2023-05-15T05:47:14.517Z,101524.44
2023-05-15T05:49:41.083Z,101533.34
2023-05-15T05:52:08.252Z,101527.19
2023-05-15T05:54:35.011Z,101548.44
2023-05-15T05:57:01.470Z,101542.88
2023-05-15T05:59:29.128Z,101536.84
2023-05-15T06:01:55.777Z,101538.25
2023-05-15T06:04:22.531Z,101538.47
2023-05-15T06:06:50.177Z,101533.66
2023-05-15T06:09:16.831Z,101534.72
2023-05-15T06:11:43.394Z,101527.72
2023-05-15T06:14:09.868Z,101539.13
2023-05-15T06:16:36.333Z,101527.72
2023-05-15T06:19:02.829Z,101532.47
2023-05-15T06:21:29.290Z,101528.44
2023-05-15T06:23:55.942Z,101531.72
2023-05-15T06:26:22.457Z,101526.19
2023-05-15T06:28:48.909Z,101528.41
2023-05-15T06:31:15.546Z,101532.91
2023-05-15T06:33:42.001Z,101524.47
2023-05-15T06:36:08.775Z,101521.47
2023-05-15T06:38:35.227Z,101520.59
2023-05-15T06:41:01.634Z,101530.28
2023-05-15T06:43:28.090Z,101530.69
2023-05-15T06:45:54.444Z,101531.53
2023-05-15T06:48:20.894Z,101533.59
2023-05-15T06:50:47.342Z,101535.13
2023-05-15T06:53:14.595Z,101525.91
2023-05-15T06:55:41.133Z,101529.69
2023-05-15T06:58:07.507Z,101534.78
2023-05-15T07:00:33.904Z,101536.59
2023-05-15T07:03:00.492Z,101535.22
2023-05-15T07:05:27.277Z,101540.00
2023-05-15T07:07:54.044Z,101538.66
2023-05-15T07:10:20.548Z,101527.56
2023-05-15T07:12:47.024Z,101531.28
2023-05-15T07:15:13.536Z,101526.25
2023-05-15T07:17:40.350Z,101528.06
2023-05-15T07:20:07.400Z,101531.19
2023-05-15T07:22:38.790Z,101524.06
2023-05-15T07:25:11.347Z,101523.66
2023-05-15T07:27:37.946Z,101518.56
2023-05-15T07:30:04.762Z,101524.31
2023-05-15T07:32:31.211Z,101525.25
2023-05-15T07:34:57.605Z,101527.31
2023-05-15T07:37:24.829Z,101527.31
2023-05-15T07:39:51.826Z,101531.25
2023-05-15T07:42:18.289Z,101524.34
2023-05-15T07:44:46.541Z,101525.28
2023-05-15T07:47:14.450Z,101514.91
2023-05-15T07:49:40.849Z,101525.56
2023-05-15T07:52:07.480Z,101525.47
2023-05-15T07:54:33.998Z,101527.44
2023-05-15T07:57:01.060Z,101522.06
2023-05-15T07:59:27.701Z,101517.03
2023-05-15T08:01:54.165Z,101510.25
2023-05-15T08:04:20.774Z,101514.13
2023-05-15T08:06:47.381Z,101514.25
2023-05-15T08:09:13.855Z,101513.88
2023-05-15T08:11:40.502Z,101521.28
2023-05-15T08:14:07.033Z,101512.50
2023-05-15T08:16:33.853Z,101512.22
2023-05-15T08:19:04.991Z,101514.44
2023-05-15T08:21:31.564Z,101521.25
2023-05-15T08:23:59.547Z,101523.50
2023-05-15T08:26:26.368Z,101521.50
2023-05-15T08:28:52.824Z,101521.28
2023-05-15T08:31:19.581Z,101525.81
2023-05-15T08:33:46.103Z,101522.19
2023-05-15T08:36:12.662Z,101523.81
2023-05-15T08:38:39.229Z,101520.75
2023-05-15T08:41:10.928Z,101520.06
2023-05-15T08:43:39.222Z,101517.38
2023-05-15T08:46:06.857Z,101517.84
2023-05-15T08:48:38.277Z,101515.22
2023-05-15T08:51:09.398Z,101515.50
2023-05-15T08:53:36.779Z,101508.94
2023-05-15T08:56:03.636Z,101522.72
2023-05-15T08:58:31.449Z,101515.41
2023-05-15T09:00:59.122Z,101519.53
2023-05-15T09:03:26.197Z,101517.47
2023-05-15T09:05:53.296Z,101526.28
2023-05-15T09:08:22.353Z,101517.81
2023-05-15T09:10:49.826Z,101512.38
2023-05-15T09:13:17.211Z,101514.88
2023-05-15T09:15:46.850Z,101518.47
2023-05-15T09:18:15.381Z,101524.31
2023-05-15T09:20:41.826Z,101528.34
2023-05-15T09:23:25.887Z,101518.31
2023-05-15T09:25:57.137Z,101525.44
2023-05-15T09:28:32.077Z,101522.88
2023-05-15T09:31:01.223Z,101523.53
2023-05-15T09:33:34.283Z,101520.81
2023-05-15T09:36:05.697Z,101526.00
2023-05-15T09:38:41.456Z,101523.09
2023-05-15T09:41:09.891Z,101526.16
2023-05-15T09:43:40.617Z,101523.69
2023-05-15T09:46:13.036Z,101521.28
2023-05-15T09:48:39.710Z,101511.97
2023-05-15T09:51:14.349Z,101515.28
2023-05-15T09:53:40.940Z,101523.53
2023-05-15T09:56:10.401Z,101517.81
2023-05-15T09:58:36.884Z,101518.22
2023-05-15T10:01:04.229Z,101510.38
2023-05-15T10:03:30.907Z,101513.63
2023-05-15T10:06:01.840Z,101523.72
2023-05-15T10:08:29.196Z,101520.53
2023-05-15T10:11:00.335Z,101524.31
2023-05-15T10:13:28.113Z,101528.53
2023-05-15T10:15:57.629Z,101532.84
2023-05-15T10:18:26.970Z,101528.03
2023-05-15T10:20:53.569Z,101533.94
2023-05-15T10:23:22.166Z,101533.59
2023-05-15T10:26:14.762Z,101535.47
2023-05-15T10:28:44.078Z,101538.06
2023-05-15T10:31:11.940Z,101535.88
2023-05-15T10:33:40.385Z,101542.03
2023-05-15T10:36:08.511Z,101550.56
2023-05-15T10:38:36.800Z,101547.53
2023-05-15T10:41:15.644Z,101549.84
2023-05-15T10:43:43.461Z,101545.72
2023-05-15T10:46:10.952Z,101544.69
2023-05-15T10:48:38.362Z,101551.94
2023-05-15T10:51:04.917Z,101535.03
2023-05-15T10:53:34.118Z,101544.28
2023-05-15T10:56:02.296Z,101539.59
2023-05-15T10:58:28.861Z,101538.84
2023-05-15T11:00:55.446Z,101538.81
2023-05-15T11:03:48.045Z,101542.50
2023-05-15T11:06:15.567Z,101543.84
2023-05-15T11:08:45.900Z,101540.41
2023-05-15T11:11:49.918Z,101532.47
2023-05-15T11:14:16.327Z,101532.88
2023-05-15T11:16:55.343Z,101538.78
2023-05-15T11:19:35.794Z,101542.22
2023-05-15T11:22:15.880Z,101538.00
2023-05-15T11:24:59.126Z,101538.34
2023-05-15T11:27:46.600Z,101539.97
2023-05-15T11:30:24.817Z,101545.03
2023-05-15T11:32:59.861Z,101540.91
2023-05-15T11:35:34.576Z,101544.47
2023-05-15T11:38:10.323Z,101541.66
2023-05-15T11:40:48.292Z,101539.47
2023-05-15T11:43:25.023Z,101538.34
2023-05-15T11:45:57.786Z,101534.03
2023-05-15T11:48:30.439Z,101531.66
2023-05-15T11:50:56.839Z,101526.34
2023-05-15T11:53:24.164Z,101531.34
2023-05-15T11:55:52.782Z,101533.69
2023-05-15T11:58:21.211Z,101532.19
2023-05-15T12:00:49.365Z,101526.34
2023-05-15T12:03:27.519Z,101531.06
2023-05-15T12:05:59.716Z,101528.34
2023-05-15T12:08:36.173Z,101528.16
2023-05-15T12:11:03.598Z,101524.31
2023-05-15T12:13:31.448Z,101535.94
2023-05-15T12:15:58.297Z,101530.34
2023-05-15T12:18:25.128Z,101526.84
2023-05-15T12:20:53.373Z,101534.25
2023-05-15T12:23:22.468Z,101525.63
2023-05-15T12:25:50.724Z,101527.97
2023-05-15T12:28:17.749Z,101521.66
2023-05-15T12:30:44.888Z,101523.44
2023-05-15T12:33:11.914Z,101526.44
2023-05-15T12:35:43.416Z,101524.97
2023-05-15T12:38:14.737Z,101515.41
2023-05-15T12:40:41.345Z,101510.63
2023-05-15T12:43:08.345Z,101520.44
2023-05-15T12:45:39.360Z,101511.50
2023-05-15T12:48:07.837Z,101510.66
2023-05-15T12:50:35.753Z,101505.41
2023-05-15T12:53:04.249Z,101509.88
2023-05-15T12:55:33.386Z,101509.94
2023-05-15T12:58:04.107Z,101507.22
2023-05-15T13:00:32.011Z,101508.06
2023-05-15T13:02:59.273Z,101499.53
2023-05-15T13:05:26.816Z,101503.91
2023-05-15T13:07:53.931Z,101503.56
2023-05-15T13:10:25.480Z,101500.28
2023-05-15T13:12:54.290Z,101501.34
2023-05-15T13:15:29.606Z,101509.97
2023-05-15T13:17:59.099Z,101508.13
2023-05-15T13:20:26.161Z,101507.88
2023-05-15T13:22:52.890Z,101503.03
2023-05-15T13:25:20.977Z,101512.34
2023-05-15T13:27:48.554Z,101503.94
2023-05-15T13:30:15.937Z,101502.97
2023-05-15T13:32:42.754Z,101506.63
2023-05-15T13:35:10.324Z,101502.84
2023-05-15T13:37:37.694Z,101508.94
2023-05-15T13:40:09.935Z,101506.03
2023-05-15T13:42:41.091Z,101519.25
2023-05-15T13:45:09.203Z,101518.28
2023-05-15T13:47:35.843Z,101517.19
2023-05-15T13:50:03.367Z,101513.50
2023-05-15T13:52:29.871Z,101516.41
2023-05-15T13:54:56.346Z,101521.06
2023-05-15T13:57:22.934Z,101517.06
2023-05-15T13:59:49.840Z,101517.22
2023-05-15T14:02:16.560Z,101521.19
2023-05-15T14:04:42.952Z,101525.31
2023-05-15T14:07:09.461Z,101518.72
2023-05-15T14:09:36.310Z,101521.78
2023-05-15T14:12:02.840Z,101525.16
2023-05-15T14:14:29.332Z,101523.53
2023-05-15T14:16:55.901Z,101523.16
2023-05-15T14:19:22.491Z,101523.03
2023-05-15T14:21:49.007Z,101524.72
2023-05-15T14:24:15.483Z,101524.56
2023-05-15T14:26:44.236Z,101524.97
2023-05-15T14:29:11.595Z,101532.47
2023-05-15T14:31:38.153Z,101536.78
2023-05-15T14:34:05.916Z,101529.31
2023-05-15T14:36:32.746Z,101533.00
2023-05-15T14:39:00.438Z,101540.53
2023-05-15T14:41:27.949Z,101542.69
2023-05-15T14:43:54.407Z,101538.06
2023-05-15T14:46:21.105Z,101542.63
2023-05-15T14:48:47.592Z,101545.94
2023-05-15T14:51:14.184Z,101545.22
2023-05-15T14:53:40.790Z,101546.66
2023-05-15T14:56:07.188Z,101546.72
2023-05-15T14:58:33.600Z,101546.22
2023-05-15T15:01:00.001Z,101552.47
2023-05-15T15:03:28.707Z,101556.16
2023-05-15T15:05:56.598Z,101556.84
2023-05-15T15:08:23.222Z,101552.44
2023-05-15T15:10:49.750Z,101567.41
2023-05-15T15:13:16.979Z,101562.41
2023-05-15T15:15:43.636Z,101557.69
2023-05-15T15:18:10.201Z,101562.91
2023-05-15T15:20:36.808Z,101558.44
2023-05-15T15:23:04.800Z,101559.72
2023-05-15T15:25:33.013Z,101558.97
2023-05-15T15:27:59.490Z,101560.13
2023-05-15T15:30:26.188Z,101563.94
2023-05-15T15:32:56.548Z,101567.47
2023-05-15T15:35:23.293Z,101565.69
2023-05-15T15:37:49.942Z,101559.03
2023-05-15T15:40:16.495Z,101564.97
2023-05-15T15:42:42.972Z,101558.47
2023-05-15T15:45:09.822Z,101567.41
2023-05-15T15:47:36.391Z,101566.81
2023-05-15T15:50:03.007Z,101571.06
2023-05-15T15:52:29.493Z,101576.13
2023-05-15T15:54:55.993Z,101575.88
2023-05-15T15:57:22.637Z,101584.72
2023-05-15T15:59:49.308Z,101581.53
2023-05-15T16:02:16.878Z,101590.72
2023-05-15T16:04:43.418Z,101594.88
2023-05-15T16:07:10.015Z,101597.44
2023-05-15T16:09:36.492Z,101592.56
2023-05-15T16:12:03.633Z,101597.09
2023-05-15T16:14:31.638Z,101593.19
2023-05-15T16:16:58.561Z,101594.44
2023-05-15T16:19:25.131Z,101598.28
2023-05-15T16:21:51.643Z,101592.31
2023-05-15T16:24:18.152Z,101603.44
2023-05-15T16:26:44.655Z,101601.81
2023-05-15T16:29:11.120Z,101599.28
2023-05-15T16:31:38.327Z,101602.25
2023-05-15T16:34:04.901Z,101604.03
2023-05-15T16:36:31.997Z,101595.31
2023-05-15T16:39:00.410Z,101601.03
2023-05-15T16:41:26.990Z,101593.97
2023-05-15T16:43:53.639Z,101603.81
2023-05-15T16:46:20.408Z,101599.19
2023-05-15T16:48:46.902Z,101607.97
2023-05-15T16:51:13.633Z,101602.03
2023-05-15T16:53:40.586Z,101605.59
2023-05-15T16:56:07.470Z,101601.22
2023-05-15T16:58:34.677Z,101595.59
2023-05-15T17:01:01.148Z,101602.13
2023-05-15T17:03:28.023Z,101602.28
2023-05-15T17:05:54.644Z,101605.91
2023-05-15T17:08:21.099Z,101610.19
2023-05-15T17:10:47.559Z,101610.19
2023-05-15T17:13:14.561Z,101607.75
2023-05-15T17:15:40.980Z,101613.75
2023-05-15T17:18:07.471Z,101612.38
2023-05-15T17:20:33.972Z,101612.38
2023-05-15T17:23:00.413Z,101609.28
2023-05-15T17:25:27.126Z,101613.34
2023-05-15T17:27:53.681Z,101611.50
2023-05-15T17:30:20.125Z,101620.66
2023-05-15T17:32:46.769Z,101619.75
2023-05-15T17:35:13.209Z,101624.97
2023-05-15T17:37:39.935Z,101623.44
2023-05-15T17:40:07.263Z,101627.72
2023-05-15T17:42:34.276Z,101626.94
2023-05-15T17:45:00.735Z,101633.06
2023-05-15T17:47:27.280Z,101644.47
2023-05-15T17:49:53.908Z,101643.94
2023-05-15T17:52:20.428Z,101639.06
2023-05-15T17:54:46.844Z,101650.25
2023-05-15T17:57:13.385Z,101659.53
2023-05-15T17:59:39.944Z,101654.59
2023-05-15T18:02:07.040Z,101654.53
2023-05-15T18:04:33.610Z,101659.94
2023-05-15T18:07:00.117Z,101664.53
2023-05-15T18:09:26.590Z,101664.53
2023-05-15T18:11:53.089Z,101673.94
2023-05-15T18:14:19.688Z,101661.22
2023-05-15T18:16:46.141Z,101670.28
2023-05-15T18:19:12.675Z,101677.31
2023-05-15T18:21:39.219Z,101677.47
2023-05-15T18:24:05.977Z,101676.75
2023-05-15T18:26:32.364Z,101683.75
2023-05-15T18:28:58.838Z,101684.09
2023-05-15T18:31:25.418Z,101686.97
2023-05-15T18:33:51.899Z,101689.78
2023-05-15T18:36:18.391Z,101694.28
2023-05-15T18:38:45.254Z,101691.84
2023-05-15T18:41:11.745Z,101698.94
2023-05-15T18:43:38.198Z,101704.94
2023-05-15T18:46:05.752Z,101698.94
2023-05-15T18:48:32.214Z,101709.44
2023-05-15T18:50:58.634Z,101705.41
2023-05-15T18:53:25.546Z,101702.81
2023-05-15T18:55:52.079Z,101700.41
2023-05-15T18:58:18.532Z,101704.78
2023-05-15T19:00:45.096Z,101705.81
2023-05-15T19:03:12.156Z,101705.88
2023-05-15T19:05:38.674Z,101704.38
2023-05-15T19:08:05.292Z,101716.53
2023-05-15T19:10:31.817Z,101704.38
2023-05-15T19:12:58.546Z,101704.63
2023-05-15T19:15:25.658Z,101713.38
2023-05-15T19:17:52.366Z,101719.25
2023-05-15T19:20:18.949Z,101721.06
2023-05-15T19:22:46.145Z,101724.47
2023-05-15T19:25:12.721Z,101728.06
2023-05-15T19:27:39.217Z,101724.66
2023-05-15T19:30:07.057Z,101719.78
2023-05-15T19:32:34.304Z,101726.06
2023-05-15T19:35:00.897Z,101732.97
2023-05-15T19:37:27.488Z,101729.72
2023-05-15T19:39:54.103Z,101727.41
2023-05-15T19:42:20.557Z,101735.47
2023-05-15T19:44:46.939Z,101737.44
2023-05-15T19:47:13.323Z,101748.25
2023-05-15T19:49:39.766Z,101751.09
2023-05-15T19:52:06.452Z,101759.16
2023-05-15T19:54:32.914Z,101757.56
2023-05-15T19:57:02.661Z,101765.56
2023-05-15T19:59:29.678Z,101758.94
2023-05-15T20:01:56.306Z,101769.25
2023-05-15T20:04:22.884Z,101776.16
2023-05-15T20:06:49.356Z,101783.06
2023-05-15T20:09:15.798Z,101789.44
2023-05-15T20:11:42.223Z,101796.53
2023-05-15T20:14:08.636Z,101800.06
2023-05-15T20:16:35.274Z,101806.06
2023-05-15T20:19:01.832Z,101814.75
2023-05-15T20:21:28.355Z,101827.75
2023-05-15T20:23:54.788Z,101830.41
2023-05-15T20:26:22.185Z,101836.38
2023-05-15T20:28:48.742Z,101840.63
2023-05-15T20:31:15.448Z,101847.75
2023-05-15T20:33:42.052Z,101843.13
2023-05-15T20:36:08.813Z,101841.75
2023-05-15T20:38:35.543Z,101841.00
2023-05-15T20:41:01.954Z,101846.38
2023-05-15T20:43:28.503Z,101836.97
2023-05-15T20:45:55.302Z,101847.63
2023-05-15T20:48:21.827Z,101842.66
2023-05-15T20:50:48.288Z,101851.31
2023-05-15T20:53:14.935Z,101852.16
2023-05-15T20:55:41.462Z,101853.94
2023-05-15T20:58:07.937Z,101862.66
2023-05-15T21:00:34.791Z,101860.94
2023-05-15T21:03:01.549Z,101860.88
2023-05-15T21:05:28.240Z,101862.53
2023-05-15T21:07:54.710Z,101869.25
2023-05-15T21:10:21.203Z,101870.94
2023-05-15T21:12:47.658Z,101873.53
2023-05-15T21:15:14.196Z,101871.81
2023-05-15T21:17:40.923Z,101879.75
2023-05-15T21:20:08.143Z,101879.84
2023-05-15T21:22:34.678Z,101883.28
2023-05-15T21:25:01.419Z,101883.41
2023-05-15T21:27:27.842Z,101872.06
2023-05-15T21:29:54.617Z,101869.59
2023-05-15T21:32:23.092Z,101877.44
2023-05-15T21:34:49.943Z,101887.81
2023-05-15T21:37:16.379Z,101891.25
2023-05-15T21:39:42.844Z,101892.81
2023-05-15T21:42:10.058Z,101901.38
2023-05-15T21:44:36.758Z,101891.66
2023-05-15T21:47:03.353Z,101887.13
2023-05-15T21:49:29.744Z,101895.84
2023-05-15T21:51:56.169Z,101891.66
2023-05-15T21:54:22.827Z,101893.25
2023-05-15T21:56:49.279Z,101895.00
2023-05-15T21:59:15.771Z,101892.53
2023-05-15T22:01:42.362Z,101892.59
2023-05-15T22:04:09.079Z,101895.31
2023-05-15T22:06:35.662Z,101897.84
2023-05-15T22:09:02.226Z,101897.91
2023-05-15T22:11:28.757Z,101903.19
2023-05-15T22:13:55.340Z,101903.06
2023-05-15T22:16:21.885Z,101901.41
2023-05-15T22:18:48.496Z,101899.63
2023-05-15T22:21:15.567Z,101905.72
2023-05-15T22:23:42.921Z,101897.81
2023-05-15T22:26:09.519Z,101904.72
2023-05-15T22:28:36.090Z,101899.56
2023-05-15T22:31:04.181Z,101915.13
2023-05-15T22:33:30.872Z,101910.72
2023-05-15T22:35:57.356Z,101908.09
2023-05-15T22:38:23.840Z,101903.69
2023-05-15T22:40:51.586Z,101907.22
2023-05-15T22:43:18.160Z,101910.72
2023-05-15T22:45:44.647Z,101912.34
2023-05-15T22:48:11.156Z,101915.03
2023-05-15T22:50:37.591Z,101916.69
2023-05-15T22:53:04.053Z,101920.16
2023-05-15T22:55:30.580Z,101914.97
2023-05-15T22:57:57.119Z,101923.72
2023-05-15T23:00:24.034Z,101927.19
2023-05-15T23:02:50.823Z,101927.19
2023-05-15T23:05:17.338Z,101923.84
2023-05-15T23:07:43.792Z,101930.91
2023-05-15T23:10:10.605Z,101928.34
2023-05-15T23:12:37.135Z,101930.09
2023-05-15T23:15:04.555Z,101933.47
2023-05-15T23:17:31.051Z,101930.03
2023-05-15T23:19:57.518Z,101930.94
2023-05-15T23:22:24.515Z,101938.72
2023-05-15T23:24:50.922Z,101941.44
2023-05-15T23:27:17.347Z,101936.22
2023-05-15T23:29:43.792Z,101938.03
2023-05-15T23:32:10.498Z,101935.44
2023-05-15T23:34:36.995Z,101934.72
2023-05-15T23:37:03.430Z,101942.44
2023-05-15T23:39:29.968Z,101942.63
2023-05-15T23:41:57.116Z,101939.22
2023-05-15T23:44:23.562Z,101943.66
2023-05-15T23:46:50.044Z,101946.38
2023-05-15T23:49:16.547Z,101944.66
2023-05-15T23:51:43.663Z,101954.19
2023-05-15T23:54:10.891Z,101952.56
2023-05-15T23:56:37.355Z,101943.94
2023-05-15T23:59:03.851Z,101958.75
